Time;durP1;ratioP1;P1;durP2;ratioP2;P2;SDS_P1;SDS_P2;PMS_P1;PMS_P2;Temp;Humidity;BMP_temperature;BMP_pressure;BME280_temperature;BME280_humidity;BME280_pressure;Samples;Min_cycle;Max_cycle;Signal;HPM_P1;HPM_P2
2023/08/04 00:01:00;;;;;;;1.83;1.23;;;17.30;99.90;;;;;;5026727;28;20223;-80
2023/08/04 00:03:29;;;;;;;1.77;1.47;;;17.30;99.90;;;;;;5027509;28;20300;-79
2023/08/04 00:05:56;;;;;;;2.47;1.33;;;17.20;99.90;;;;;;5027830;28;20233;-80
2023/08/04 00:08:22;;;;;;;1.50;1.40;;;17.20;99.90;;;;;;5027809;28;20754;-80
2023/08/04 00:10:50;;;;;;;2.60;1.30;;;17.20;99.90;;;;;;5027266;28;20705;-79
2023/08/04 00:13:17;;;;;;;1.50;1.40;;;17.20;99.90;;;;;;5027183;28;20295;-79
2023/08/04 00:15:44;;;;;;;2.03;1.47;;;17.20;99.90;;;;;;5027152;28;20228;-79
2023/08/04 00:18:11;;;;;;;1.97;1.70;;;17.20;99.90;;;;;;5027330;28;20314;-80
2023/08/04 00:20:39;;;;;;;1.60;1.50;;;17.20;99.90;;;;;;5027312;28;20316;-80
2023/08/04 00:23:06;;;;;;;2.53;1.20;;;17.20;99.90;;;;;;5027311;28;20300;-80
2023/08/04 00:25:33;;;;;;;4.50;1.60;;;17.30;99.90;;;;;;5027588;28;20300;-80
2023/08/04 00:28:00;;;;;;;2.30;1.30;;;17.30;99.90;;;;;;5040162;28;20295;-80
2023/08/04 00:30:27;;;;;;;1.67;1.57;;;17.30;99.90;;;;;;5047880;28;20207;-80
2023/08/04 00:32:54;;;;;;;2.20;1.60;;;17.30;99.90;;;;;;5032753;28;20255;-80
2023/08/04 00:35:21;;;;;;;1.60;1.50;;;17.30;99.90;;;;;;5027273;28;21075;-80
2023/08/04 00:37:49;;;;;;;1.80;1.70;;;17.30;99.90;;;;;;5027046;28;20208;-79
2023/08/04 00:40:16;;;;;;;3.00;1.97;;;17.40;99.90;;;;;;5026951;28;20231;-80
2023/08/04 00:42:43;;;;;;;3.47;1.90;;;17.40;99.90;;;;;;5027047;28;20358;-79
2023/08/04 00:45:11;;;;;;;1.93;1.80;;;17.40;99.90;;;;;;5026961;28;20751;-80
2023/08/04 00:47:39;;;;;;;6.63;1.90;;;17.40;99.90;;;;;;5026609;28;20294;-80
2023/08/04 00:50:08;;;;;;;1.70;1.60;;;17.40;99.90;;;;;;5026448;28;20216;-80
2023/08/04 00:52:36;;;;;;;1.97;1.80;;;17.30;99.90;;;;;;5026731;28;20300;-79
2023/08/04 00:55:05;;;;;;;3.70;2.00;;;17.40;99.90;;;;;;5026294;28;21071;-79
2023/08/04 00:57:32;;;;;;;2.43;2.17;;;17.30;99.90;;;;;;5019574;28;20263;-80
2023/08/04 00:59:59;;;;;;;3.73;1.97;;;17.30;99.90;;;;;;5007337;28;20857;-81
2023/08/04 01:02:26;;;;;;;3.50;1.63;;;17.30;99.90;;;;;;5007464;28;20305;-79
2023/08/04 01:04:53;;;;;;;2.60;1.70;;;17.40;99.90;;;;;;5012693;28;20751;-79
2023/08/04 01:07:23;;;;;;;2.80;1.70;;;17.40;99.90;;;;;;5025944;28;20268;-78
2023/08/04 01:09:58;;;;;;;3.50;2.20;;;17.40;99.90;;;;;;5026156;28;20657;-78
2023/08/04 01:12:35;;;;;;;3.97;2.10;;;17.40;99.90;;;;;;5026121;28;20212;-78
2023/08/04 01:15:04;;;;;;;2.30;1.90;;;17.40;99.90;;;;;;5026059;28;20932;-78
2023/08/04 01:17:32;;;;;;;2.03;1.83;;;17.40;99.90;;;;;;5026469;28;20204;-79
2023/08/04 01:19:59;;;;;;;1.80;1.70;;;17.40;99.90;;;;;;5026723;28;20320;-79
2023/08/04 01:22:28;;;;;;;3.83;2.13;;;17.50;99.90;;;;;;5026351;28;20235;-77
2023/08/04 01:24:56;;;;;;;2.17;2.03;;;17.40;99.90;;;;;;5026496;28;20251;-78
2023/08/04 01:27:31;;;;;;;2.20;2.10;;;17.40;99.90;;;;;;5026383;28;20288;-79
2023/08/04 01:30:01;;;;;;;9.07;2.20;;;17.40;99.90;;;;;;5025847;28;20197;-79
2023/08/04 01:32:28;;;;;;;2.77;2.10;;;17.40;99.90;;;;;;5026191;28;20240;-80
2023/08/04 01:34:55;;;;;;;4.70;2.70;;;17.40;99.90;;;;;;5025689;28;20288;-80
2023/08/04 01:37:22;;;;;;;4.93;2.43;;;17.40;99.90;;;;;;5025949;28;20262;-79
2023/08/04 01:39:51;;;;;;;3.43;2.17;;;17.40;99.90;;;;;;5025671;28;20276;-79
2023/08/04 01:42:17;;;;;;;3.60;2.13;;;17.40;99.90;;;;;;5025561;28;20212;-81
2023/08/04 01:44:45;;;;;;;4.20;2.50;;;17.40;99.90;;;;;;5025407;28;20291;-79
2023/08/04 01:47:12;;;;;;;4.40;2.30;;;17.40;99.90;;;;;;5025185;28;20824;-79
2023/08/04 01:49:39;;;;;;;2.90;2.30;;;17.40;99.90;;;;;;5026134;28;20212;-79
2023/08/04 01:52:06;;;;;;;4.27;2.30;;;17.40;99.90;;;;;;5025957;28;20303;-78
2023/08/04 01:54:33;;;;;;;6.03;2.40;;;17.40;99.90;;;;;;5025535;28;20766;-79
2023/08/04 01:57:02;;;;;;;3.57;2.60;;;17.30;99.90;;;;;;5025810;28;20746;-81
2023/08/04 01:59:28;;;;;;;4.90;2.57;;;17.40;99.90;;;;;;5025777;28;20331;-81
2023/08/04 02:01:55;;;;;;;3.10;2.30;;;17.40;99.90;;;;;;5026192;28;20208;-81
2023/08/04 02:04:22;;;;;;;2.60;2.50;;;17.40;99.90;;;;;;5026047;28;20213;-81
2023/08/04 02:06:49;;;;;;;6.00;2.90;;;17.30;99.90;;;;;;5025784;28;20227;-82
2023/08/04 02:09:16;;;;;;;2.77;2.57;;;17.40;99.90;;;;;;5024330;28;20318;-81
2023/08/04 02:11:43;;;;;;;6.70;2.57;;;17.30;99.90;;;;;;5025763;28;20215;-81
2023/08/04 02:14:12;;;;;;;5.60;2.87;;;17.40;99.90;;;;;;5025374;28;20213;-81
2023/08/04 02:16:40;;;;;;;4.30;3.30;;;17.30;99.90;;;;;;5025439;28;20228;-78
2023/08/04 02:19:09;;;;;;;3.90;2.80;;;17.30;99.90;;;;;;5025660;28;20224;-78
2023/08/04 02:21:36;;;;;;;4.93;2.53;;;17.30;99.90;;;;;;5025334;28;20204;-78
2023/08/04 02:24:03;;;;;;;3.53;3.13;;;17.40;99.90;;;;;;5024783;28;20701;-78
2023/08/04 02:26:30;;;;;;;6.47;2.70;;;17.40;99.90;;;;;;5025702;28;20213;-77
2023/08/04 02:28:57;;;;;;;3.23;2.40;;;17.40;99.90;;;;;;5025867;28;20699;-77
2023/08/04 02:31:28;;;;;;;6.97;2.73;;;17.40;99.90;;;;;;5025681;28;20734;-77
2023/08/04 02:33:55;;;;;;;5.87;2.67;;;17.30;99.90;;;;;;5025728;28;20201;-77
2023/08/04 02:36:22;;;;;;;7.80;3.30;;;17.40;99.90;;;;;;5025986;28;20204;-77
2023/08/04 02:38:49;;;;;;;4.73;2.93;;;17.40;99.90;;;;;;5025242;28;20267;-77
2023/08/04 02:41:16;;;;;;;4.70;3.17;;;17.30;99.90;;;;;;5025496;28;20304;-77
2023/08/04 02:43:43;;;;;;;5.60;2.70;;;17.30;99.90;;;;;;5025760;28;20701;-78
2023/08/04 02:46:10;;;;;;;4.87;2.70;;;17.30;99.90;;;;;;5025397;28;20236;-77
2023/08/04 02:48:39;;;;;;;7.50;3.30;;;17.30;99.90;;;;;;5017995;28;20590;-77
2023/08/04 02:51:07;;;;;;;5.47;2.53;;;17.40;99.90;;;;;;5023064;28;20591;-77
2023/08/04 02:53:36;;;;;;;4.87;2.97;;;17.30;99.90;;;;;;5025400;28;20339;-77
2023/08/04 02:56:09;;;;;;;8.77;3.10;;;17.40;99.90;;;;;;5024748;28;20219;-77
2023/08/04 02:58:36;;;;;;;5.33;3.03;;;17.30;99.90;;;;;;5025067;28;20203;-77
2023/08/04 03:01:02;;;;;;;5.10;3.13;;;17.40;99.90;;;;;;5024905;28;20311;-77
2023/08/04 03:03:29;;;;;;;5.43;3.00;;;17.30;99.90;;;;;;5025637;28;20240;-81
2023/08/04 03:05:59;;;;;;;5.37;2.80;;;17.30;99.90;;;;;;5025077;28;20240;-79
2023/08/04 03:08:26;;;;;;;7.50;3.13;;;17.30;99.90;;;;;;5025263;28;20296;-79
2023/08/04 03:10:53;;;;;;;4.27;3.00;;;17.30;99.90;;;;;;5025065;28;20243;-79
2023/08/04 03:13:20;;;;;;;7.93;3.43;;;17.30;99.90;;;;;;5025115;28;20219;-79
2023/08/04 03:15:47;;;;;;;5.00;3.20;;;17.30;99.90;;;;;;5024631;28;20223;-79
2023/08/04 03:18:14;;;;;;;7.13;3.27;;;17.30;99.90;;;;;;5024998;28;20330;-79
2023/08/04 03:20:42;;;;;;;3.40;3.10;;;17.30;99.90;;;;;;5024705;28;20229;-80
2023/08/04 03:23:11;;;;;;;7.67;3.00;;;17.30;99.90;;;;;;5019013;28;20814;-79
2023/08/04 03:25:37;;;;;;;7.23;3.80;;;17.30;99.90;;;;;;5004006;28;20308;-79
2023/08/04 03:28:04;;;;;;;6.43;3.50;;;17.30;99.90;;;;;;5003638;28;20216;-80
2023/08/04 03:30:32;;;;;;;4.50;3.20;;;17.20;99.90;;;;;;5003668;28;20261;-80
2023/08/04 03:32:59;;;;;;;10.53;3.50;;;17.20;99.90;;;;;;5016060;28;20215;-79
2023/08/04 03:35:26;;;;;;;4.50;3.53;;;17.10;99.90;;;;;;5023286;28;20205;-80
2023/08/04 03:37:53;;;;;;;4.37;3.43;;;17.10;99.90;;;;;;5026135;28;20666;-80
2023/08/04 03:40:21;;;;;;;9.13;3.80;;;17.00;99.90;;;;;;5026329;28;20239;-80
2023/08/04 03:42:49;;;;;;;6.23;3.17;;;17.00;99.90;;;;;;5026320;28;20371;-79
2023/08/04 03:45:16;;;;;;;5.47;3.40;;;17.10;99.90;;;;;;5026203;28;20200;-79
2023/08/04 03:47:43;;;;;;;4.87;2.93;;;17.00;99.90;;;;;;5025832;28;20243;-79
2023/08/04 03:50:10;;;;;;;5.17;3.40;;;17.00;99.90;;;;;;5026157;28;20645;-80
2023/08/04 03:52:37;;;;;;;5.87;3.10;;;17.00;99.90;;;;;;5026463;28;20322;-80
2023/08/04 03:55:05;;;;;;;13.97;3.10;;;17.00;99.90;;;;;;5026159;28;20769;-80
2023/08/04 03:57:34;;;;;;;7.13;3.50;;;16.90;99.90;;;;;;5025782;28;20216;-79
2023/08/04 04:00:03;;;;;;;5.70;3.57;;;16.90;99.90;;;;;;5025725;28;20326;-79
2023/08/04 04:02:30;;;;;;;6.47;3.87;;;16.90;99.90;;;;;;5027996;28;20735;-80
2023/08/04 04:04:57;;;;;;;7.67;3.60;;;17.00;99.90;;;;;;5027547;28;20215;-79
2023/08/04 04:07:24;;;;;;;8.77;4.17;;;16.90;99.90;;;;;;5027424;28;20204;-80
2023/08/04 04:09:50;;;;;;;5.30;3.67;;;16.90;99.90;;;;;;5026747;28;20213;-80
2023/08/04 04:12:17;;;;;;;9.83;3.43;;;16.90;99.90;;;;;;5021301;28;20284;-79
2023/08/04 04:14:46;;;;;;;6.23;3.20;;;16.90;99.90;;;;;;5018105;28;20255;-80
2023/08/04 04:17:12;;;;;;;11.73;3.90;;;16.90;99.90;;;;;;5016942;28;20201;-80
2023/08/04 04:19:40;;;;;;;8.00;3.70;;;16.90;99.90;;;;;;5020704;28;20233;-80
2023/08/04 04:22:09;;;;;;;7.77;3.70;;;16.80;99.90;;;;;;5013590;28;20776;-79
2023/08/04 04:24:36;;;;;;;6.90;3.70;;;16.80;99.90;;;;;;5018849;28;20205;-80
2023/08/04 04:27:03;;;;;;;7.10;3.80;;;16.80;99.90;;;;;;5018254;28;20292;-80
2023/08/04 04:29:30;;;;;;;8.67;4.60;;;16.80;99.90;;;;;;5018831;28;20708;-80
2023/08/04 04:31:58;;;;;;;9.60;4.10;;;16.80;99.90;;;;;;5023175;28;20217;-80
2023/08/04 04:34:25;;;;;;;5.93;4.00;;;16.80;99.90;;;;;;5025239;28;20196;-81
2023/08/04 04:36:54;;;;;;;4.37;3.33;;;16.80;99.90;;;;;;5027169;28;20704;-80
2023/08/04 04:39:21;;;;;;;7.10;3.70;;;16.80;99.90;;;;;;5015725;28;20237;-78
2023/08/04 04:41:48;;;;;;;8.93;4.00;;;16.80;99.90;;;;;;5019203;28;20205;-79
2023/08/04 04:44:15;;;;;;;6.47;3.90;;;16.80;99.90;;;;;;5018073;28;20197;-79
2023/08/04 04:46:42;;;;;;;6.53;3.43;;;16.80;99.90;;;;;;5018589;28;20264;-78
2023/08/04 04:49:11;;;;;;;6.27;3.07;;;16.80;99.90;;;;;;5019110;28;20297;-78
2023/08/04 04:51:38;;;;;;;6.70;3.70;;;16.80;99.90;;;;;;5015803;28;20197;-78
2023/08/04 04:54:04;;;;;;;7.43;3.40;;;16.80;99.90;;;;;;5014752;28;20653;-78
2023/08/04 04:56:31;;;;;;;10.23;3.53;;;16.80;99.90;;;;;;5019801;28;20321;-78
2023/08/04 04:58:58;;;;;;;12.20;3.63;;;16.80;99.90;;;;;;5021472;28;20240;-78
2023/08/04 05:01:25;;;;;;;7.40;3.40;;;16.80;99.90;;;;;;5017557;28;20557;-79
2023/08/04 05:03:52;;;;;;;6.53;3.20;;;16.80;99.90;;;;;;5016060;28;20300;-78
2023/08/04 05:06:20;;;;;;;5.00;3.00;;;16.80;99.90;;;;;;5016886;28;20197;-78
2023/08/04 05:08:47;;;;;;;7.23;3.77;;;16.90;99.90;;;;;;5014811;28;20214;-79
2023/08/04 05:11:14;;;;;;;8.13;3.50;;;16.90;99.90;;;;;;5017981;28;20209;-78
2023/08/04 05:13:41;;;;;;;5.77;3.43;;;16.90;99.90;;;;;;5016657;28;20209;-79
2023/08/04 05:16:08;;;;;;;4.20;3.20;;;16.90;99.90;;;;;;5011045;28;20205;-79
2023/08/04 05:18:35;;;;;;;10.07;3.40;;;16.90;99.90;;;;;;5016037;28;20209;-78
2023/08/04 05:21:03;;;;;;;6.30;3.47;;;16.90;99.90;;;;;;5020282;28;20331;-77
2023/08/04 05:23:31;;;;;;;6.13;3.20;;;16.90;99.90;;;;;;5015883;28;20264;-78
2023/08/04 05:25:58;;;;;;;10.77;3.70;;;16.90;99.90;;;;;;5016389;28;20324;-78
2023/08/04 05:28:28;;;;;;;6.57;3.33;;;16.90;99.90;;;;;;5019608;28;20211;-78
2023/08/04 05:30:56;;;;;;;7.17;3.77;;;16.90;99.90;;;;;;5015777;28;20204;-78
2023/08/04 05:33:24;;;;;;;8.47;3.97;;;16.90;99.90;;;;;;5015107;28;20656;-79
2023/08/04 05:35:51;;;;;;;7.97;3.70;;;16.90;99.90;;;;;;5013760;28;20587;-78
2023/08/04 05:38:18;;;;;;;5.70;3.17;;;17.00;99.90;;;;;;5013907;28;20205;-78
2023/08/04 05:40:48;;;;;;;3.40;3.10;;;16.90;99.90;;;;;;5016766;28;20660;-81
2023/08/04 05:43:16;;;;;;;6.73;3.67;;;16.90;99.90;;;;;;5018379;28;20209;-78
2023/08/04 05:45:46;;;;;;;5.87;3.47;;;16.90;99.90;;;;;;5018105;28;20662;-78
2023/08/04 05:48:13;;;;;;;4.50;3.30;;;16.90;99.90;;;;;;5018596;28;20201;-78
2023/08/04 05:50:40;;;;;;;8.13;3.13;;;16.90;99.90;;;;;;5020380;28;20291;-78
2023/08/04 05:53:08;;;;;;;9.27;3.67;;;16.90;99.90;;;;;;5019533;28;20201;-78
2023/08/04 05:55:35;;;;;;;9.60;3.60;;;17.00;99.90;;;;;;5020121;28;20204;-80
2023/08/04 05:58:04;;;;;;;9.73;3.50;;;17.00;99.90;;;;;;5011085;28;20201;-78
2023/08/04 06:00:31;;;;;;;4.70;3.10;;;17.00;99.90;;;;;;5010101;28;20323;-79
2023/08/04 06:02:58;;;;;;;6.50;3.27;;;17.00;99.90;;;;;;5015947;28;20661;-79
2023/08/04 06:05:25;;;;;;;6.70;3.23;;;17.10;99.90;;;;;;5016680;28;20292;-79
2023/08/04 06:07:52;;;;;;;5.63;3.50;;;17.10;99.90;;;;;;5024852;28;20200;-79
2023/08/04 06:10:20;;;;;;;5.47;3.20;;;17.20;99.90;;;;;;5020907;28;20204;-79
2023/08/04 06:12:47;;;;;;;12.07;3.30;;;17.30;99.90;;;;;;5018449;28;20520;-78
2023/08/04 06:15:16;;;;;;;5.77;2.87;;;17.30;99.90;;;;;;5016873;28;20208;-79
2023/08/04 06:17:44;;;;;;;6.90;3.27;;;17.40;99.90;;;;;;5017878;28;20733;-79
2023/08/04 06:20:12;;;;;;;6.70;3.30;;;17.50;99.90;;;;;;5024048;28;20808;-79
2023/08/04 06:22:39;;;;;;;5.33;2.77;;;17.40;99.90;;;;;;5014120;28;20288;-79
2023/08/04 06:25:07;;;;;;;4.27;2.80;;;17.50;99.90;;;;;;5021649;28;20209;-79
2023/08/04 06:27:35;;;;;;;5.97;3.00;;;17.50;99.90;;;;;;5014885;28;20238;-79
2023/08/04 06:30:02;;;;;;;5.23;2.83;;;17.40;99.90;;;;;;5015809;28;20237;-79
2023/08/04 06:32:30;;;;;;;6.60;2.70;;;17.50;99.90;;;;;;5016814;28;20220;-78
2023/08/04 06:34:57;;;;;;;7.60;2.97;;;17.50;99.90;;;;;;5014586;28;20301;-78
2023/08/04 06:37:24;;;;;;;6.30;2.90;;;17.60;99.90;;;;;;5012506;28;20202;-79
2023/08/04 06:39:52;;;;;;;5.07;2.67;;;17.60;99.90;;;;;;5009562;28;20221;-78
2023/08/04 06:42:19;;;;;;;6.07;2.57;;;17.60;99.90;;;;;;5012257;28;20212;-78
2023/08/04 06:44:46;;;;;;;7.50;2.90;;;17.70;99.90;;;;;;5015947;28;20731;-79
2023/08/04 06:47:14;;;;;;;9.83;3.27;;;17.60;99.90;;;;;;5006250;28;20279;-79
2023/08/04 06:49:43;;;;;;;5.63;2.70;;;17.50;99.90;;;;;;5013412;28;20656;-77
2023/08/04 06:52:10;;;;;;;6.73;3.20;;;17.50;99.90;;;;;;5015754;28;20893;-78
2023/08/04 06:54:38;;;;;;;3.43;2.57;;;17.60;99.90;;;;;;5017570;28;20236;-79
2023/08/04 06:57:05;;;;;;;4.80;2.67;;;17.60;99.90;;;;;;5017301;28;20211;-79
2023/08/04 06:59:32;;;;;;;6.73;2.60;;;17.70;99.90;;;;;;5016557;28;20205;-79
2023/08/04 07:01:59;;;;;;;5.93;2.43;;;17.70;99.90;;;;;;5014741;28;20775;-78
2023/08/04 07:04:26;;;;;;;4.73;2.60;;;17.80;99.90;;;;;;5016832;28;20296;-79
2023/08/04 07:06:55;;;;;;;7.63;2.50;;;18.00;99.90;;;;;;5016243;28;20678;-78
2023/08/04 07:09:22;;;;;;;5.03;2.63;;;18.00;99.90;;;;;;5012968;28;21153;-79
2023/08/04 07:11:49;;;;;;;8.00;2.97;;;18.10;99.90;;;;;;5013801;28;20284;-79
2023/08/04 07:14:16;;;;;;;4.93;2.70;;;18.10;99.90;;;;;;5014298;28;20288;-78
2023/08/04 07:16:46;;;;;;;9.60;2.77;;;18.10;99.90;;;;;;5018846;28;20205;-78
2023/08/04 07:19:12;;;;;;;6.60;2.70;;;18.10;99.90;;;;;;5024701;28;20605;-78
2023/08/04 07:21:39;;;;;;;3.77;2.47;;;18.10;99.90;;;;;;5019193;28;20336;-79
2023/08/04 07:24:09;;;;;;;5.03;2.27;;;18.20;99.90;;;;;;5023461;28;20259;-79
2023/08/04 07:26:36;;;;;;;5.70;2.57;;;18.20;99.90;;;;;;5016447;28;20229;-79
2023/08/04 07:29:06;;;;;;;4.60;2.57;;;18.20;99.90;;;;;;5022165;28;20293;-79
2023/08/04 07:31:33;;;;;;;4.77;2.50;;;18.20;99.90;;;;;;5028093;28;20299;-78
2023/08/04 07:34:00;;;;;;;7.90;3.00;;;18.20;99.90;;;;;;5028286;28;20204;-78
2023/08/04 07:36:27;;;;;;;4.63;2.63;;;18.20;99.90;;;;;;5014761;28;20264;-78
2023/08/04 07:38:54;;;;;;;6.43;2.67;;;18.30;99.90;;;;;;5024565;28;20221;-78
2023/08/04 07:41:24;;;;;;;6.47;2.63;;;18.30;99.90;;;;;;5011642;28;20229;-78
2023/08/04 07:43:51;;;;;;;4.70;2.23;;;18.40;99.90;;;;;;5008402;28;20200;-79
2023/08/04 07:46:21;;;;;;;4.73;2.37;;;18.40;99.90;;;;;;5010071;28;20272;-79
2023/08/04 07:48:49;;;;;;;5.03;2.53;;;18.50;99.90;;;;;;5027735;28;20675;-78
2023/08/04 07:51:16;;;;;;;3.27;2.27;;;18.50;99.90;;;;;;5027589;28;20244;-78
2023/08/04 07:53:43;;;;;;;5.67;2.50;;;18.60;99.90;;;;;;5027490;28;20385;-79
2023/08/04 07:56:09;;;;;;;4.57;2.40;;;18.60;99.90;;;;;;5027713;28;20211;-79
2023/08/04 07:58:38;;;;;;;4.10;2.30;;;18.70;99.90;;;;;;5027249;28;20244;-78
2023/08/04 08:01:05;;;;;;;6.60;2.33;;;18.60;99.90;;;;;;5027286;28;20647;-78
2023/08/04 08:03:33;;;;;;;2.57;2.37;;;18.50;99.90;;;;;;5027284;28;20750;-79
2023/08/04 08:06:00;;;;;;;6.23;2.50;;;18.50;99.90;;;;;;5027614;28;20212;-78
2023/08/04 08:08:27;;;;;;;2.53;2.37;;;18.50;99.90;;;;;;5018836;28;20560;-78
2023/08/04 08:10:54;;;;;;;6.03;2.57;;;18.60;99.90;;;;;;5007750;28;20688;-79
2023/08/04 08:13:21;;;;;;;2.40;2.10;;;18.70;99.90;;;;;;5007913;28;20300;-79
2023/08/04 08:15:49;;;;;;;7.57;2.53;;;18.80;99.90;;;;;;5013858;28;20250;-78
2023/08/04 08:18:37;;;;;;;3.23;2.50;;;18.90;99.90;;;;;;5027954;28;20306;-78
2023/08/04 08:21:07;;;;;;;4.13;2.33;;;18.90;99.90;;;;;;5026850;28;20996;-79
2023/08/04 08:23:34;;;;;;;4.73;2.57;;;18.90;99.90;;;;;;5032938;28;20800;-78
2023/08/04 08:26:00;;;;;;;5.37;2.50;;;18.90;99.90;;;;;;5046958;28;20239;-79
2023/08/04 08:28:27;;;;;;;5.63;2.53;;;19.10;99.90;;;;;;5029768;28;20215;-79
2023/08/04 08:30:57;;;;;;;2.70;2.40;;;19.00;99.90;;;;;;5026608;28;20233;-78
2023/08/04 08:33:25;;;;;;;4.60;2.27;;;19.00;99.90;;;;;;5025014;28;20295;-78
2023/08/04 08:35:52;;;;;;;4.83;2.63;;;19.00;99.90;;;;;;5026201;28;20197;-79
2023/08/04 08:38:19;;;;;;;3.87;2.30;;;19.00;99.90;;;;;;5026541;28;20213;-79
2023/08/04 08:40:48;;;;;;;5.60;2.70;;;19.20;99.90;;;;;;5020714;28;20224;-79
2023/08/04 08:43:15;;;;;;;5.90;2.43;;;19.30;99.90;;;;;;5018661;28;20200;-79
2023/08/04 08:45:44;;;;;;;6.13;2.40;;;19.40;99.90;;;;;;5018223;28;20323;-78
2023/08/04 08:48:13;;;;;;;4.97;2.63;;;19.50;99.90;;;;;;5015816;28;20197;-78
2023/08/04 08:50:41;;;;;;;5.80;2.60;;;19.60;99.90;;;;;;5020920;28;20292;-78
2023/08/04 08:53:12;;;;;;;6.17;2.30;;;19.60;99.90;;;;;;5016358;28;20220;-78
2023/08/04 08:55:40;;;;;;;5.20;3.03;;;19.60;99.90;;;;;;5019482;28;20203;-78
2023/08/04 08:58:08;;;;;;;3.77;2.30;;;19.60;99.90;;;;;;5021497;28;20219;-79
2023/08/04 09:00:35;;;;;;;3.33;2.20;;;19.70;99.90;;;;;;5015635;28;20372;-79
2023/08/04 09:03:04;;;;;;;3.00;2.17;;;19.60;99.90;;;;;;5021364;28;20376;-78
2023/08/04 09:05:33;;;;;;;4.33;2.13;;;19.60;99.90;;;;;;5019138;28;20201;-79
2023/08/04 09:08:00;;;;;;;2.23;2.00;;;19.50;99.90;;;;;;5018185;28;20255;-79
2023/08/04 09:10:27;;;;;;;5.17;2.37;;;19.60;99.90;;;;;;5015704;28;20722;-78
2023/08/04 09:12:56;;;;;;;2.83;2.00;;;19.50;99.90;;;;;;5016819;28;20284;-79
2023/08/04 09:15:34;;;;;;;5.43;2.50;;;19.50;99.90;;;;;;5017825;28;20198;-79
2023/08/04 09:18:01;;;;;;;3.83;2.00;;;19.60;99.90;;;;;;5020042;28;20193;-79
2023/08/04 09:20:29;;;;;;;4.67;2.20;;;19.60;99.90;;;;;;5018120;28;20263;-78
2023/08/04 09:22:58;;;;;;;4.53;2.40;;;19.80;99.90;;;;;;5015658;28;21582;-78
2023/08/04 09:25:25;;;;;;;4.60;2.00;;;19.90;99.90;;;;;;5017303;28;20336;-79
2023/08/04 09:27:52;;;;;;;6.97;2.40;;;20.10;99.90;;;;;;5014050;28;20197;-78
2023/08/04 09:30:19;;;;;;;3.40;2.00;;;20.30;99.90;;;;;;5013354;28;20535;-79
2023/08/04 09:32:47;;;;;;;2.20;2.00;;;20.40;99.90;;;;;;5014048;28;20288;-79
2023/08/04 09:35:17;;;;;;;3.43;2.00;;;20.40;99.90;;;;;;5016833;28;20664;-79
2023/08/04 09:37:44;;;;;;;3.70;2.20;;;20.40;99.90;;;;;;5013515;28;20205;-79
2023/08/04 09:40:17;;;;;;;6.87;2.30;;;20.30;99.90;;;;;;5013267;28;20862;-79
2023/08/04 09:42:45;;;;;;;3.97;2.47;;;20.20;99.90;;;;;;5015191;28;20774;-79
2023/08/04 09:45:15;;;;;;;3.00;2.20;;;20.10;99.90;;;;;;5025458;28;20670;-78
2023/08/04 09:47:48;;;;;;;3.93;2.13;;;20.00;99.90;;;;;;5019597;28;20233;-79
2023/08/04 09:50:15;;;;;;;3.83;2.00;;;19.80;99.90;;;;;;5013826;28;20196;-81
2023/08/04 09:52:42;;;;;;;3.83;1.90;;;19.70;99.90;;;;;;5017069;28;20288;-81
2023/08/04 09:55:09;;;;;;;4.10;2.10;;;19.60;99.90;;;;;;5016403;28;20955;-81
2023/08/04 09:57:38;;;;;;;2.97;1.90;;;19.50;99.90;;;;;;5014131;28;20213;-79
2023/08/04 10:00:07;;;;;;;2.03;1.80;;;19.50;99.90;;;;;;5014362;28;20288;-79
2023/08/04 10:02:36;;;;;;;3.67;2.20;;;19.50;99.90;;;;;;5014271;28;20225;-79
2023/08/04 10:05:04;;;;;;;2.13;1.90;;;19.50;99.90;;;;;;5014145;28;20209;-79
2023/08/04 10:07:31;;;;;;;6.97;2.67;;;19.50;99.90;;;;;;5016580;28;20264;-80
2023/08/04 10:10:00;;;;;;;4.27;2.40;;;19.50;99.90;;;;;;5015938;28;20205;-79
2023/08/04 10:12:28;;;;;;;4.50;2.23;;;19.60;99.90;;;;;;5014525;28;20205;-79
2023/08/04 10:14:57;;;;;;;2.50;2.30;;;19.60;99.90;;;;;;5015254;28;20205;-79
2023/08/04 10:17:26;;;;;;;4.87;2.10;;;19.70;99.90;;;;;;5014582;28;20300;-78
2023/08/04 10:20:03;;;;;;;3.33;2.07;;;19.80;99.90;;;;;;5018030;28;20209;-79
2023/08/04 10:22:30;;;;;;;4.03;2.03;;;20.10;99.90;;;;;;5021336;28;20326;-78
2023/08/04 10:24:57;;;;;;;3.13;1.70;;;20.30;99.90;;;;;;5012646;28;20229;-79
2023/08/04 10:27:24;;;;;;;3.40;2.03;;;20.60;99.90;;;;;;5006350;28;20648;-79
2023/08/04 10:30:11;;;;;;;3.73;2.27;;;20.70;99.90;;;;;;5019632;28;20640;-78
2023/08/04 10:32:39;;;;;;;3.20;2.33;;;20.80;99.90;;;;;;5016236;28;20197;-79
2023/08/04 10:35:08;;;;;;;2.90;1.87;;;20.70;99.90;;;;;;5024800;28;20636;-79
2023/08/04 10:37:49;;;;;;;5.23;2.50;;;20.70;99.90;;;;;;5025039;28;20200;-80
2023/08/04 10:40:29;;;;;;;4.47;2.70;;;20.40;99.90;;;;;;5025247;28;20605;-79
2023/08/04 10:43:04;;;;;;;4.50;2.77;;;20.00;99.90;;;;;;5025033;28;20223;-80
2023/08/04 10:45:55;;;;;;;4.57;2.70;;;19.90;99.90;;;;;;5026677;28;20217;-79
2023/08/04 10:48:22;;;;;;;3.43;2.67;;;19.90;99.90;;;;;;5029141;28;20208;-79
2023/08/04 10:50:50;;;;;;;2.57;2.37;;;20.20;99.90;;;;;;5029078;28;20304;-79
2023/08/04 10:53:17;;;;;;;3.80;2.47;;;20.40;99.90;;;;;;5028837;28;20212;-79
2023/08/04 10:55:52;;;;;;;4.43;2.60;;;20.70;99.90;;;;;;5028550;28;20801;-79
2023/08/04 10:58:19;;;;;;;3.03;2.22;;;20.90;99.90;;;;;;5028166;28;20204;-79
2023/08/04 11:00:46;;;;;;;2.70;2.20;;;21.00;99.90;;;;;;5028652;28;20636;-79
2023/08/04 11:03:22;;;;;;;2.97;2.37;;;21.00;99.90;;;;;;5028476;28;20319;-79
2023/08/04 11:05:50;;;;;;;3.42;2.30;;;21.10;99.90;;;;;;5036527;28;20210;-79
2023/08/04 11:08:18;;;;;;;5.25;2.15;;;21.20;99.90;;;;;;5028306;28;20205;-79
2023/08/04 11:10:47;;;;;;;3.17;2.15;;;21.50;99.90;;;;;;5028051;28;20322;-79
2023/08/04 11:13:17;;;;;;;2.50;1.83;;;21.70;99.90;;;;;;5027234;28;20223;-78
2023/08/04 11:15:44;;;;;;;3.38;2.20;;;21.90;99.90;;;;;;5022154;28;20258;-79
2023/08/04 11:18:12;;;;;;;3.22;2.08;;;22.10;99.90;;;;;;5018878;28;20280;-79
2023/08/04 11:20:41;;;;;;;3.50;2.00;;;22.00;99.90;;;;;;5016022;28;20201;-78
2023/08/04 11:23:10;;;;;;;3.70;2.20;;;22.20;99.90;;;;;;5018057;28;21686;-78
2023/08/04 11:25:38;;;;;;;2.80;2.20;;;22.30;99.90;;;;;;5018401;28;20212;-79
2023/08/04 11:28:05;;;;;;;4.43;2.20;;;22.40;99.90;;;;;;5015772;28;20208;-78
2023/08/04 11:30:34;;;;;;;4.20;2.20;;;22.50;99.90;;;;;;5026277;28;20299;-78
2023/08/04 11:33:01;;;;;;;3.95;2.15;;;22.70;99.90;;;;;;5021451;28;20209;-79
2023/08/04 11:35:29;;;;;;;3.97;1.88;;;22.70;99.90;;;;;;5018379;28;20202;-78
2023/08/04 11:37:58;;;;;;;3.83;1.90;;;22.50;99.90;;;;;;5018668;28;20209;-79
2023/08/04 11:40:27;;;;;;;4.53;2.30;;;22.20;99.90;;;;;;5019039;28;20212;-79
2023/08/04 11:42:59;;;;;;;2.50;1.90;;;22.00;99.90;;;;;;5016914;28;20774;-78
2023/08/04 11:45:26;;;;;;;2.97;2.20;;;21.70;99.90;;;;;;5019571;28;20615;-79
2023/08/04 11:47:56;;;;;;;2.92;2.13;;;21.50;99.90;;;;;;5016852;28;20231;-79
2023/08/04 11:50:24;;;;;;;3.47;2.27;;;21.30;99.90;;;;;;5019177;28;20216;-79
2023/08/04 11:52:52;;;;;;;3.60;2.40;;;21.20;99.90;;;;;;5015953;28;20216;-79
2023/08/04 11:55:20;;;;;;;3.57;2.20;;;21.10;99.90;;;;;;5018132;28;20205;-79
2023/08/04 11:57:51;;;;;;;4.23;1.90;;;21.10;99.90;;;;;;5020098;28;20373;-80
2023/08/04 12:00:33;;;;;;;6.03;2.10;;;21.10;99.90;;;;;;5017976;28;20285;-79
2023/08/04 12:03:02;;;;;;;3.00;2.30;;;21.30;99.90;;;;;;5021010;28;20231;-79
2023/08/04 12:05:30;;;;;;;4.15;2.40;;;21.50;99.90;;;;;;5026263;28;20849;-79
2023/08/04 12:07:58;;;;;;;3.47;2.15;;;21.70;99.90;;;;;;5027325;28;20238;-79
2023/08/04 12:10:28;;;;;;;4.33;2.10;;;21.90;99.90;;;;;;5027348;28;20205;-80
2023/08/04 12:12:55;;;;;;;4.88;2.10;;;21.90;99.90;;;;;;5026738;28;20209;-79
2023/08/04 12:15:22;;;;;;;2.08;1.90;;;21.90;99.90;;;;;;5027212;28;20309;-79
2023/08/04 12:17:49;;;;;;;3.30;1.95;;;21.80;99.90;;;;;;5023743;28;20208;-79
2023/08/04 12:20:15;;;;;;;3.45;2.33;;;21.70;99.90;;;;;;5016110;28;20639;-79
2023/08/04 12:22:44;;;;;;;4.07;2.00;;;21.70;99.90;;;;;;5019336;28;20294;-80
2023/08/04 12:25:13;;;;;;;2.70;2.00;;;21.70;99.90;;;;;;5016861;28;20681;-80
2023/08/04 12:27:42;;;;;;;3.58;1.80;;;21.70;99.90;;;;;;5019150;28;20304;-79
2023/08/04 12:30:09;;;;;;;2.65;1.70;;;21.60;99.90;;;;;;5011952;28;20212;-80
2023/08/04 12:32:36;;;;;;;4.30;1.77;;;21.60;99.90;;;;;;5020284;28;20296;-80
2023/08/04 12:35:04;;;;;;;3.03;1.87;;;21.70;99.90;;;;;;5020961;28;20205;-80
2023/08/04 12:37:31;;;;;;;3.53;2.10;;;21.80;99.90;;;;;;5019812;28;20201;-80
2023/08/04 12:39:57;;;;;;;3.13;1.70;;;21.90;99.90;;;;;;5016846;28;20233;-80
2023/08/04 12:42:31;;;;;;;3.65;1.70;;;22.10;99.90;;;;;;5019381;28;20283;-80
2023/08/04 12:45:01;;;;;;;2.55;1.60;;;22.20;99.90;;;;;;5013554;28;20267;-80
2023/08/04 12:47:28;;;;;;;2.07;1.70;;;22.20;99.90;;;;;;5020552;28;20261;-80
2023/08/04 12:49:55;;;;;;;3.08;1.80;;;22.10;99.90;;;;;;5026279;28;20207;-80